LQSA

Sarajevo International Airport

Sarajevo, Bosnia and Herzegovina
TAF LQSA 182300Z 1900/1924 30006KT 4000 -SN SCT012 BKN030 TX03/1913Z TNM01/1901Z PROB30 TEMPO 1900/1905 1000 -SN BR BKN008 OVC020 TEMPO 1910/1920 1500 SNRA BR BKN010 BKN025
Issued Valid From Valid To
Jan-18 @ 23:00 UTC
(4 hours ago)
Jan-19 @ 00:00 UTC
(3 hours ago)
Jan-20 @ 00:00 UTC
(in 21 hours)
Jan-19 @ 00:00 to Jan-20 @ 00:00
TAF LQSA 182300Z 1900/1924 30006KT 4000 -SN SCT012 BKN030 TX03/1913Z TNM01/1901Z
Wind Visibility Clouds Conditions
300° at 6 knots 4,007 meters
  • Scattered at 1,200' AGL
  • Broken at 3,000' AGL
  • Light Snow
Temporary  (Probability 30%) Jan-19 @ 00:00 to Jan-19 @ 05:00
PROB30 TEMPO 1900/1905 1000 -SN BR BKN008 OVC020
Visibility Clouds Conditions
998 meters
  • Broken at 800' AGL
  • Overcast at 2,000' AGL
  • Light Snow
  • Mist
Temporary Jan-19 @ 10:00 to Jan-19 @ 20:00
TEMPO 1910/1920 1500 SNRA BR BKN010 BKN025
Visibility Clouds Conditions
1,497 meters
  • Broken at 1,000' AGL
  • Broken at 2,500' AGL
  • Snow
  • Rain
  • Mist
TAF LQSA 182300Z 1900/1924 30006KT 4000 -SN SCT012 BKN030 TX03/1913Z TNM01/1901Z PROB30 TEMPO 1900/1905 1000 -SN BR BKN008 OVC020 TEMPO 1910/1920 1500 SNRA BR BKN010 BKN025
Issued Jan-18 @ 23:00 UTC
(4 hours ago)
Valid From Jan-19 @ 00:00 UTC
(3 hours ago)
Valid To Jan-20 @ 00:00 UTC
(in 21 hours)
Jan-19 @ 00:00 - Jan-20 @ 00:00
Wind Visibility
300° at 6 knots 4,007 meters
Clouds
  • Scattered at 1,200' AGL
  • Broken at 3,000' AGL
Conditions
  • Light Snow
Probability 30% Temporary Jan-19 @ 00:00 - Jan-19 @ 05:00
Clouds
  • Broken at 800' AGL
  • Overcast at 2,000' AGL
Conditions
  • Light Snow
  • Mist
Temporary Jan-19 @ 10:00 - Jan-19 @ 20:00
Clouds
  • Broken at 1,000' AGL
  • Broken at 2,500' AGL
Conditions
  • Snow
  • Rain
  • Mist